sensor_id;sensor_type;location;lat;lon;timestamp;temperature;humidity
4749;DHT22;2388;53.582;9.962;2022-12-18T00:01:32;-2.20;99.90
4749;DHT22;2388;53.582;9.962;2022-12-18T00:03:59;-2.10;99.90
4749;DHT22;2388;53.582;9.962;2022-12-18T00:06:27;-2.20;99.90
4749;DHT22;2388;53.582;9.962;2022-12-18T00:08:55;-2.20;99.90
4749;DHT22;2388;53.582;9.962;2022-12-18T00:11:23;-2.20;99.90
4749;DHT22;2388;53.582;9.962;2022-12-18T00:13:49;-2.20;99.90
4749;DHT22;2388;53.582;9.962;2022-12-18T00:16:18;-2.20;99.90
4749;DHT22;2388;53.582;9.962;2022-12-18T00:18:46;-2.20;99.90
4749;DHT22;2388;53.582;9.962;2022-12-18T00:21:13;-2.20;99.90
4749;DHT22;2388;53.582;9.962;2022-12-18T00:23:41;-2.20;99.90
4749;DHT22;2388;53.582;9.962;2022-12-18T00:26:12;-2.20;99.90
4749;DHT22;2388;53.582;9.962;2022-12-18T00:28:38;-2.20;99.90
4749;DHT22;2388;53.582;9.962;2022-12-18T00:31:06;-2.30;99.90
4749;DHT22;2388;53.582;9.962;2022-12-18T00:33:32;-2.30;99.90
4749;DHT22;2388;53.582;9.962;2022-12-18T00:36:06;-2.30;99.90
4749;DHT22;2388;53.582;9.962;2022-12-18T00:38:32;-2.30;99.90
4749;DHT22;2388;53.582;9.962;2022-12-18T00:40:58;-2.30;99.90
4749;DHT22;2388;53.582;9.962;2022-12-18T00:43:24;-2.30;99.90
4749;DHT22;2388;53.582;9.962;2022-12-18T00:45:49;-2.30;99.90
4749;DHT22;2388;53.582;9.962;2022-12-18T00:48:15;-1.80;99.90
4749;DHT22;2388;53.582;9.962;2022-12-18T00:50:40;-2.30;99.90
4749;DHT22;2388;53.582;9.962;2022-12-18T00:53:06;-2.30;99.90
4749;DHT22;2388;53.582;9.962;2022-12-18T00:55:31;-2.30;99.90
4749;DHT22;2388;53.582;9.962;2022-12-18T00:57:57;-2.30;99.90
4749;DHT22;2388;53.582;9.962;2022-12-18T01:00:23;-2.40;99.90
4749;DHT22;2388;53.582;9.962;2022-12-18T01:02:48;-2.40;99.90
4749;DHT22;2388;53.582;9.962;2022-12-18T01:05:14;-2.40;99.90
4749;DHT22;2388;53.582;9.962;2022-12-18T01:07:40;-2.40;99.90
4749;DHT22;2388;53.582;9.962;2022-12-18T01:10:06;-2.30;99.90
4749;DHT22;2388;53.582;9.962;2022-12-18T01:12:33;-2.40;99.90
4749;DHT22;2388;53.582;9.962;2022-12-18T01:14:58;-2.40;99.90
4749;DHT22;2388;53.582;9.962;2022-12-18T01:17:24;-2.40;99.90
4749;DHT22;2388;53.582;9.962;2022-12-18T01:19:50;-2.40;99.90
4749;DHT22;2388;53.582;9.962;2022-12-18T01:22:15;-2.50;99.90
4749;DHT22;2388;53.582;9.962;2022-12-18T01:24:41;-2.50;99.90
4749;DHT22;2388;53.582;9.962;2022-12-18T01:27:06;-2.50;99.90
4749;DHT22;2388;53.582;9.962;2022-12-18T01:29:32;-2.50;99.90
4749;DHT22;2388;53.582;9.962;2022-12-18T01:31:58;-2.50;99.90
4749;DHT22;2388;53.582;9.962;2022-12-18T01:34:24;-2.50;99.90
4749;DHT22;2388;53.582;9.962;2022-12-18T01:36:49;-2.60;99.90
4749;DHT22;2388;53.582;9.962;2022-12-18T01:39:18;-2.50;99.90
4749;DHT22;2388;53.582;9.962;2022-12-18T01:41:44;-2.60;99.90
4749;DHT22;2388;53.582;9.962;2022-12-18T01:45:47;-2.60;99.90
4749;DHT22;2388;53.582;9.962;2022-12-18T01:47:48;-2.60;99.90
4749;DHT22;2388;53.582;9.962;2022-12-18T01:50:20;-2.60;99.90
4749;DHT22;2388;53.582;9.962;2022-12-18T01:52:50;-2.60;99.90
4749;DHT22;2388;53.582;9.962;2022-12-18T01:55:19;-2.60;99.90
4749;DHT22;2388;53.582;9.962;2022-12-18T01:57:46;-2.50;99.90
4749;DHT22;2388;53.582;9.962;2022-12-18T02:00:20;-2.70;99.90
4749;DHT22;2388;53.582;9.962;2022-12-18T02:02:47;-2.70;99.90
4749;DHT22;2388;53.582;9.962;2022-12-18T02:05:16;-2.70;99.90
4749;DHT22;2388;53.582;9.962;2022-12-18T02:07:49;-2.70;99.90
4749;DHT22;2388;53.582;9.962;2022-12-18T02:10:31;-2.80;99.90
4749;DHT22;2388;53.582;9.962;2022-12-18T02:13:26;-2.70;99.90
4749;DHT22;2388;53.582;9.962;2022-12-18T02:18:38;-2.80;99.90
4749;DHT22;2388;53.582;9.962;2022-12-18T02:24:08;-2.80;99.90
4749;DHT22;2388;53.582;9.962;2022-12-18T02:26:46;-2.80;99.90
4749;DHT22;2388;53.582;9.962;2022-12-18T02:29:23;-2.80;99.90
4749;DHT22;2388;53.582;9.962;2022-12-18T02:31:52;-2.90;99.90
4749;DHT22;2388;53.582;9.962;2022-12-18T02:34:20;-2.90;99.90
4749;DHT22;2388;53.582;9.962;2022-12-18T02:36:48;-2.90;99.90
4749;DHT22;2388;53.582;9.962;2022-12-18T02:39:15;-3.00;99.90
4749;DHT22;2388;53.582;9.962;2022-12-18T02:41:42;-3.00;99.90
4749;DHT22;2388;53.582;9.962;2022-12-18T02:44:11;-2.90;99.90
4749;DHT22;2388;53.582;9.962;2022-12-18T02:46:41;-2.90;99.90
4749;DHT22;2388;53.582;9.962;2022-12-18T02:52:16;-2.90;99.90
4749;DHT22;2388;53.582;9.962;2022-12-18T02:55:12;-2.90;99.90
4749;DHT22;2388;53.582;9.962;2022-12-18T03:00:17;-2.80;99.90
4749;DHT22;2388;53.582;9.962;2022-12-18T03:02:57;-2.90;99.90
4749;DHT22;2388;53.582;9.962;2022-12-18T03:08:15;-2.80;99.90
4749;DHT22;2388;53.582;9.962;2022-12-18T03:10:54;-2.80;99.90
4749;DHT22;2388;53.582;9.962;2022-12-18T03:16:09;-2.90;99.90
4749;DHT22;2388;53.582;9.962;2022-12-18T03:18:37;-2.80;99.90
4749;DHT22;2388;53.582;9.962;2022-12-18T03:21:06;-2.80;99.90
4749;DHT22;2388;53.582;9.962;2022-12-18T03:23:42;-2.80;99.90
4749;DHT22;2388;53.582;9.962;2022-12-18T03:26:11;-2.80;99.90
4749;DHT22;2388;53.582;9.962;2022-12-18T03:28:42;-2.90;99.90
4749;DHT22;2388;53.582;9.962;2022-12-18T03:31:10;-2.90;99.90
4749;DHT22;2388;53.582;9.962;2022-12-18T03:33:52;-2.80;99.90
4749;DHT22;2388;53.582;9.962;2022-12-18T03:36:17;-2.80;99.90
4749;DHT22;2388;53.582;9.962;2022-12-18T03:38:43;-2.80;99.90
4749;DHT22;2388;53.582;9.962;2022-12-18T03:44:11;-2.80;99.90
4749;DHT22;2388;53.582;9.962;2022-12-18T03:49:35;-2.90;99.90
4749;DHT22;2388;53.582;9.962;2022-12-18T03:52:21;-2.90;99.90
4749;DHT22;2388;53.582;9.962;2022-12-18T03:54:49;-3.00;99.90
4749;DHT22;2388;53.582;9.962;2022-12-18T03:57:19;-3.10;99.90
4749;DHT22;2388;53.582;9.962;2022-12-18T03:59:48;-3.10;99.90
4749;DHT22;2388;53.582;9.962;2022-12-18T04:02:16;-3.10;99.90
4749;DHT22;2388;53.582;9.962;2022-12-18T04:04:43;-3.00;99.90
4749;DHT22;2388;53.582;9.962;2022-12-18T04:07:10;-3.10;99.90
4749;DHT22;2388;53.582;9.962;2022-12-18T04:09:39;-3.10;99.90
4749;DHT22;2388;53.582;9.962;2022-12-18T04:12:05;-3.10;99.90
4749;DHT22;2388;53.582;9.962;2022-12-18T04:14:31;-3.00;99.90
4749;DHT22;2388;53.582;9.962;2022-12-18T04:17:01;-3.00;99.90
4749;DHT22;2388;53.582;9.962;2022-12-18T04:19:26;-3.00;99.90
4749;DHT22;2388;53.582;9.962;2022-12-18T04:21:52;-3.10;99.90
4749;DHT22;2388;53.582;9.962;2022-12-18T04:24:17;-3.20;99.90
4749;DHT22;2388;53.582;9.962;2022-12-18T04:26:43;-3.10;99.90
4749;DHT22;2388;53.582;9.962;2022-12-18T04:29:08;-3.10;99.90
4749;DHT22;2388;53.582;9.962;2022-12-18T04:31:34;-3.20;99.90
4749;DHT22;2388;53.582;9.962;2022-12-18T04:33:59;-3.20;99.90
4749;DHT22;2388;53.582;9.962;2022-12-18T04:36:26;-3.30;99.90
4749;DHT22;2388;53.582;9.962;2022-12-18T04:38:52;-3.30;99.90
4749;DHT22;2388;53.582;9.962;2022-12-18T04:41:18;-3.30;99.90
4749;DHT22;2388;53.582;9.962;2022-12-18T04:43:43;-3.30;99.90
4749;DHT22;2388;53.582;9.962;2022-12-18T04:46:09;-3.30;99.90
4749;DHT22;2388;53.582;9.962;2022-12-18T04:48:35;-3.30;99.90
4749;DHT22;2388;53.582;9.962;2022-12-18T04:51:01;-3.30;99.90
4749;DHT22;2388;53.582;9.962;2022-12-18T04:53:27;-3.40;99.90
4749;DHT22;2388;53.582;9.962;2022-12-18T04:56:07;-3.40;99.90
4749;DHT22;2388;53.582;9.962;2022-12-18T04:58:34;-3.40;99.90
4749;DHT22;2388;53.582;9.962;2022-12-18T05:01:00;-3.30;99.90
4749;DHT22;2388;53.582;9.962;2022-12-18T05:03:26;-3.30;99.90
4749;DHT22;2388;53.582;9.962;2022-12-18T05:05:52;-3.40;99.90
4749;DHT22;2388;53.582;9.962;2022-12-18T05:08:18;-3.40;99.90
4749;DHT22;2388;53.582;9.962;2022-12-18T05:10:43;-3.40;99.90
4749;DHT22;2388;53.582;9.962;2022-12-18T05:13:09;-3.40;99.90
4749;DHT22;2388;53.582;9.962;2022-12-18T05:15:34;-3.50;99.90
4749;DHT22;2388;53.582;9.962;2022-12-18T05:18:01;-3.50;99.90
4749;DHT22;2388;53.582;9.962;2022-12-18T05:20:27;-3.50;99.90
4749;DHT22;2388;53.582;9.962;2022-12-18T05:22:53;-3.50;99.90
4749;DHT22;2388;53.582;9.962;2022-12-18T05:25:19;-3.50;99.90
4749;DHT22;2388;53.582;9.962;2022-12-18T05:27:45;-3.60;99.90
4749;DHT22;2388;53.582;9.962;2022-12-18T05:30:12;-3.60;99.90
4749;DHT22;2388;53.582;9.962;2022-12-18T05:32:37;-3.60;99.90
4749;DHT22;2388;53.582;9.962;2022-12-18T05:35:04;-3.60;99.90
4749;DHT22;2388;53.582;9.962;2022-12-18T05:37:30;-3.60;99.90
4749;DHT22;2388;53.582;9.962;2022-12-18T05:39:55;-3.70;99.90
4749;DHT22;2388;53.582;9.962;2022-12-18T05:42:21;-3.60;99.90
4749;DHT22;2388;53.582;9.962;2022-12-18T05:44:46;-3.70;99.90
4749;DHT22;2388;53.582;9.962;2022-12-18T05:47:12;-3.60;99.90
4749;DHT22;2388;53.582;9.962;2022-12-18T05:49:38;-3.70;99.90
4749;DHT22;2388;53.582;9.962;2022-12-18T05:52:03;-3.70;99.90
4749;DHT22;2388;53.582;9.962;2022-12-18T05:54:29;-3.80;99.90
4749;DHT22;2388;53.582;9.962;2022-12-18T05:56:55;-3.70;99.90
4749;DHT22;2388;53.582;9.962;2022-12-18T05:59:20;-3.70;99.90
4749;DHT22;2388;53.582;9.962;2022-12-18T06:01:46;-3.70;99.90
4749;DHT22;2388;53.582;9.962;2022-12-18T06:04:12;-3.70;99.90
4749;DHT22;2388;53.582;9.962;2022-12-18T06:06:37;-3.70;99.90
4749;DHT22;2388;53.582;9.962;2022-12-18T06:09:03;-3.70;99.90
4749;DHT22;2388;53.582;9.962;2022-12-18T06:11:34;-3.70;99.90
4749;DHT22;2388;53.582;9.962;2022-12-18T06:14:00;-3.70;99.90
4749;DHT22;2388;53.582;9.962;2022-12-18T06:16:27;-3.80;99.90
4749;DHT22;2388;53.582;9.962;2022-12-18T06:18:55;-3.80;99.90
4749;DHT22;2388;53.582;9.962;2022-12-18T06:21:21;-3.80;99.90
4749;DHT22;2388;53.582;9.962;2022-12-18T06:23:46;-3.80;99.90
4749;DHT22;2388;53.582;9.962;2022-12-18T06:26:12;-3.80;99.90
4749;DHT22;2388;53.582;9.962;2022-12-18T06:28:38;-3.80;99.90
4749;DHT22;2388;53.582;9.962;2022-12-18T06:31:04;-3.80;99.90
4749;DHT22;2388;53.582;9.962;2022-12-18T06:33:30;-3.80;99.90
4749;DHT22;2388;53.582;9.962;2022-12-18T06:36:04;-3.90;99.90
4749;DHT22;2388;53.582;9.962;2022-12-18T06:38:32;-3.90;99.90
4749;DHT22;2388;53.582;9.962;2022-12-18T06:40:57;-3.90;99.90
4749;DHT22;2388;53.582;9.962;2022-12-18T06:43:23;-3.90;99.90
4749;DHT22;2388;53.582;9.962;2022-12-18T06:45:48;-3.80;99.90
4749;DHT22;2388;53.582;9.962;2022-12-18T06:48:20;-3.90;99.90
4749;DHT22;2388;53.582;9.962;2022-12-18T06:50:46;-3.90;99.90
4749;DHT22;2388;53.582;9.962;2022-12-18T06:53:12;-3.90;99.90
4749;DHT22;2388;53.582;9.962;2022-12-18T06:55:37;-3.90;99.90
4749;DHT22;2388;53.582;9.962;2022-12-18T06:58:03;-3.90;99.90
4749;DHT22;2388;53.582;9.962;2022-12-18T07:00:28;-3.90;99.90
4749;DHT22;2388;53.582;9.962;2022-12-18T07:02:54;-3.90;99.90
4749;DHT22;2388;53.582;9.962;2022-12-18T07:05:19;-3.90;99.90
4749;DHT22;2388;53.582;9.962;2022-12-18T07:07:45;-3.90;99.90
4749;DHT22;2388;53.582;9.962;2022-12-18T07:10:10;-3.90;99.90
4749;DHT22;2388;53.582;9.962;2022-12-18T07:12:36;-3.80;99.90
4749;DHT22;2388;53.582;9.962;2022-12-18T07:15:02;-3.80;99.90
4749;DHT22;2388;53.582;9.962;2022-12-18T07:17:27;-3.80;99.90
4749;DHT22;2388;53.582;9.962;2022-12-18T07:19:53;-3.80;99.90
4749;DHT22;2388;53.582;9.962;2022-12-18T07:22:19;-3.80;99.90
4749;DHT22;2388;53.582;9.962;2022-12-18T07:24:44;-3.80;99.90
4749;DHT22;2388;53.582;9.962;2022-12-18T07:27:10;-3.80;99.90
4749;DHT22;2388;53.582;9.962;2022-12-18T07:29:35;-3.80;99.90
4749;DHT22;2388;53.582;9.962;2022-12-18T07:32:01;-3.80;99.90
4749;DHT22;2388;53.582;9.962;2022-12-18T07:34:26;-3.80;99.90
4749;DHT22;2388;53.582;9.962;2022-12-18T07:36:52;-3.80;99.90
4749;DHT22;2388;53.582;9.962;2022-12-18T07:39:17;-3.90;99.90
4749;DHT22;2388;53.582;9.962;2022-12-18T07:41:43;-3.90;99.90
4749;DHT22;2388;53.582;9.962;2022-12-18T07:44:12;-3.90;99.90
4749;DHT22;2388;53.582;9.962;2022-12-18T07:46:37;-3.90;99.90
4749;DHT22;2388;53.582;9.962;2022-12-18T07:49:03;-3.90;99.90
4749;DHT22;2388;53.582;9.962;2022-12-18T07:51:29;-3.80;99.90
4749;DHT22;2388;53.582;9.962;2022-12-18T07:53:55;-3.80;99.90
4749;DHT22;2388;53.582;9.962;2022-12-18T07:56:21;-3.80;99.90
4749;DHT22;2388;53.582;9.962;2022-12-18T07:58:47;-3.80;99.90
4749;DHT22;2388;53.582;9.962;2022-12-18T08:01:12;-3.80;99.90
4749;DHT22;2388;53.582;9.962;2022-12-18T08:03:39;-3.80;99.90
4749;DHT22;2388;53.582;9.962;2022-12-18T08:06:07;-3.70;99.90
4749;DHT22;2388;53.582;9.962;2022-12-18T08:08:34;-3.80;99.90
4749;DHT22;2388;53.582;9.962;2022-12-18T08:11:00;-3.70;99.90
4749;DHT22;2388;53.582;9.962;2022-12-18T08:13:26;-3.70;99.90
4749;DHT22;2388;53.582;9.962;2022-12-18T08:16:04;-3.70;99.90
4749;DHT22;2388;53.582;9.962;2022-12-18T08:18:34;-3.60;99.90
4749;DHT22;2388;53.582;9.962;2022-12-18T08:21:16;-3.60;99.90
4749;DHT22;2388;53.582;9.962;2022-12-18T08:23:42;-3.60;99.90
4749;DHT22;2388;53.582;9.962;2022-12-18T08:26:08;-3.50;99.90
4749;DHT22;2388;53.582;9.962;2022-12-18T08:28:34;-3.50;99.90
4749;DHT22;2388;53.582;9.962;2022-12-18T08:30:59;-3.50;99.90
4749;DHT22;2388;53.582;9.962;2022-12-18T08:33:25;-3.50;99.90
4749;DHT22;2388;53.582;9.962;2022-12-18T08:35:52;-3.50;99.90
4749;DHT22;2388;53.582;9.962;2022-12-18T08:38:17;-3.50;99.90
4749;DHT22;2388;53.582;9.962;2022-12-18T08:40:43;-3.50;99.90
4749;DHT22;2388;53.582;9.962;2022-12-18T08:43:10;-3.40;99.90
4749;DHT22;2388;53.582;9.962;2022-12-18T08:45:54;-3.40;99.90
4749;DHT22;2388;53.582;9.962;2022-12-18T08:48:20;-3.40;99.90
4749;DHT22;2388;53.582;9.962;2022-12-18T08:50:56;-3.40;99.90
4749;DHT22;2388;53.582;9.962;2022-12-18T08:53:25;-3.40;99.90
4749;DHT22;2388;53.582;9.962;2022-12-18T08:55:52;-3.30;99.90
4749;DHT22;2388;53.582;9.962;2022-12-18T08:58:17;-3.30;99.90
4749;DHT22;2388;53.582;9.962;2022-12-18T09:00:43;-3.40;99.90
4749;DHT22;2388;53.582;9.962;2022-12-18T09:03:12;-3.30;99.90
4749;DHT22;2388;53.582;9.962;2022-12-18T09:05:38;-3.30;99.90
4749;DHT22;2388;53.582;9.962;2022-12-18T09:08:03;-3.30;99.90
4749;DHT22;2388;53.582;9.962;2022-12-18T09:10:29;-3.20;99.90
4749;DHT22;2388;53.582;9.962;2022-12-18T09:12:54;-3.20;99.90
4749;DHT22;2388;53.582;9.962;2022-12-18T09:15:21;-3.10;99.90
4749;DHT22;2388;53.582;9.962;2022-12-18T09:17:47;-3.10;99.90
4749;DHT22;2388;53.582;9.962;2022-12-18T09:20:13;-3.10;99.90
4749;DHT22;2388;53.582;9.962;2022-12-18T09:22:38;-3.20;99.90
4749;DHT22;2388;53.582;9.962;2022-12-18T09:25:04;-3.20;99.90
4749;DHT22;2388;53.582;9.962;2022-12-18T09:27:33;-3.20;99.90
4749;DHT22;2388;53.582;9.962;2022-12-18T09:29:58;-3.10;99.90
4749;DHT22;2388;53.582;9.962;2022-12-18T09:32:24;-3.00;99.90
4749;DHT22;2388;53.582;9.962;2022-12-18T09:34:49;-3.00;99.90
4749;DHT22;2388;53.582;9.962;2022-12-18T09:37:15;-2.60;99.90
4749;DHT22;2388;53.582;9.962;2022-12-18T09:39:40;-2.40;99.90
4749;DHT22;2388;53.582;9.962;2022-12-18T09:42:09;-2.50;1.00
4749;DHT22;2388;53.582;9.962;2022-12-18T09:44:44;-2.60;1.00
4749;DHT22;2388;53.582;9.962;2022-12-18T09:47:18;-2.70;76.90
4749;DHT22;2388;53.582;9.962;2022-12-18T09:49:47;-2.80;52.20
4749;DHT22;2388;53.582;9.962;2022-12-18T09:52:22;-2.60;17.50
4749;DHT22;2388;53.582;9.962;2022-12-18T10:00:22;-2.40;1.00
4749;DHT22;2388;53.582;9.962;2022-12-18T10:02:49;-2.40;99.90
4749;DHT22;2388;53.582;9.962;2022-12-18T10:05:20;-2.10;1.00
4749;DHT22;2388;53.582;9.962;2022-12-18T10:07:59;-2.20;99.90
4749;DHT22;2388;53.582;9.962;2022-12-18T10:10:40;-2.30;99.90
4749;DHT22;2388;53.582;9.962;2022-12-18T10:13:24;-2.40;99.90
4749;DHT22;2388;53.582;9.962;2022-12-18T10:18:35;-2.30;1.00
4749;DHT22;2388;53.582;9.962;2022-12-18T10:21:27;-2.30;1.00
4749;DHT22;2388;53.582;9.962;2022-12-18T10:24:15;-2.30;99.90
4749;DHT22;2388;53.582;9.962;2022-12-18T10:26:41;-2.30;99.90
4749;DHT22;2388;53.582;9.962;2022-12-18T10:29:12;-2.30;99.90
4749;DHT22;2388;53.582;9.962;2022-12-18T10:31:39;-2.20;99.90
4749;DHT22;2388;53.582;9.962;2022-12-18T10:34:10;-2.20;99.90
4749;DHT22;2388;53.582;9.962;2022-12-18T10:36:35;-2.20;99.90
4749;DHT22;2388;53.582;9.962;2022-12-18T10:39:21;-2.10;99.90
4749;DHT22;2388;53.582;9.962;2022-12-18T10:41:50;-2.10;99.90
4749;DHT22;2388;53.582;9.962;2022-12-18T10:44:23;-2.10;99.90
4749;DHT22;2388;53.582;9.962;2022-12-18T10:46:50;-2.10;99.90
4749;DHT22;2388;53.582;9.962;2022-12-18T10:49:25;-2.00;99.90
4749;DHT22;2388;53.582;9.962;2022-12-18T10:52:04;-1.90;99.80
4749;DHT22;2388;53.582;9.962;2022-12-18T10:54:31;-1.90;99.90
4749;DHT22;2388;53.582;9.962;2022-12-18T10:59:54;-1.80;98.50
4749;DHT22;2388;53.582;9.962;2022-12-18T11:02:37;-1.80;98.80
4749;DHT22;2388;53.582;9.962;2022-12-18T11:05:29;-1.80;98.00
4749;DHT22;2388;53.582;9.962;2022-12-18T11:07:55;-1.80;98.00
4749;DHT22;2388;53.582;9.962;2022-12-18T11:10:25;-1.70;99.10
4749;DHT22;2388;53.582;9.962;2022-12-18T11:12:52;-1.60;98.30
4749;DHT22;2388;53.582;9.962;2022-12-18T11:15:29;-1.60;97.90
4749;DHT22;2388;53.582;9.962;2022-12-18T11:17:55;-1.60;98.30
4749;DHT22;2388;53.582;9.962;2022-12-18T11:20:31;-1.50;97.30
4749;DHT22;2388;53.582;9.962;2022-12-18T11:23:03;-1.50;97.90
4749;DHT22;2388;53.582;9.962;2022-12-18T11:25:29;-1.50;97.00
4749;DHT22;2388;53.582;9.962;2022-12-18T11:28:00;-1.50;97.50
4749;DHT22;2388;53.582;9.962;2022-12-18T11:30:29;-1.50;97.10
4749;DHT22;2388;53.582;9.962;2022-12-18T11:33:19;-1.50;98.40
4749;DHT22;2388;53.582;9.962;2022-12-18T11:35:55;-1.50;99.60
4749;DHT22;2388;53.582;9.962;2022-12-18T11:38:23;-1.50;99.90
4749;DHT22;2388;53.582;9.962;2022-12-18T11:41:03;-1.40;99.90
4749;DHT22;2388;53.582;9.962;2022-12-18T11:43:41;-1.30;1.00
4749;DHT22;2388;53.582;9.962;2022-12-18T11:49:13;-1.20;98.50
4749;DHT22;2388;53.582;9.962;2022-12-18T11:51:52;-1.20;98.70
4749;DHT22;2388;53.582;9.962;2022-12-18T11:54:18;-1.10;98.50
4749;DHT22;2388;53.582;9.962;2022-12-18T11:56:49;-1.10;97.70
4749;DHT22;2388;53.582;9.962;2022-12-18T11:59:28;-1.20;98.10
4749;DHT22;2388;53.582;9.962;2022-12-18T12:10:09;-1.20;99.90
4749;DHT22;2388;53.582;9.962;2022-12-18T12:16:06;-0.70;98.30
4749;DHT22;2388;53.582;9.962;2022-12-18T12:18:52;-0.70;96.30
4749;DHT22;2388;53.582;9.962;2022-12-18T12:21:40;-0.90;97.10
4749;DHT22;2388;53.582;9.962;2022-12-18T12:27:28;-1.20;99.20
4749;DHT22;2388;53.582;9.962;2022-12-18T12:32:37;-1.20;99.90
4749;DHT22;2388;53.582;9.962;2022-12-18T12:35:26;-1.20;99.50
4749;DHT22;2388;53.582;9.962;2022-12-18T12:38:15;-1.30;99.90
4749;DHT22;2388;53.582;9.962;2022-12-18T12:40:57;-1.20;99.90
4749;DHT22;2388;53.582;9.962;2022-12-18T12:43:34;-1.30;99.80
4749;DHT22;2388;53.582;9.962;2022-12-18T12:46:09;-1.30;99.80
4749;DHT22;2388;53.582;9.962;2022-12-18T12:48:45;-1.20;99.30
4749;DHT22;2388;53.582;9.962;2022-12-18T12:51:20;-1.10;98.60
4749;DHT22;2388;53.582;9.962;2022-12-18T12:53:47;-1.10;99.10
4749;DHT22;2388;53.582;9.962;2022-12-18T12:56:15;-1.00;98.40
4749;DHT22;2388;53.582;9.962;2022-12-18T12:59:10;-1.00;97.10
4749;DHT22;2388;53.582;9.962;2022-12-18T13:01:56;-1.10;98.30
4749;DHT22;2388;53.582;9.962;2022-12-18T13:04:42;-1.10;98.10
4749;DHT22;2388;53.582;9.962;2022-12-18T13:07:17;-1.00;96.10
4749;DHT22;2388;53.582;9.962;2022-12-18T13:10:12;-1.10;95.80
4749;DHT22;2388;53.582;9.962;2022-12-18T13:15:27;-1.00;95.40
4749;DHT22;2388;53.582;9.962;2022-12-18T13:18:04;-0.90;94.50
4749;DHT22;2388;53.582;9.962;2022-12-18T13:20:36;-0.90;93.80
4749;DHT22;2388;53.582;9.962;2022-12-18T13:25:53;-1.00;94.10
4749;DHT22;2388;53.582;9.962;2022-12-18T13:31:57;-1.20;94.60
4749;DHT22;2388;53.582;9.962;2022-12-18T13:34:25;-1.30;95.40
4749;DHT22;2388;53.582;9.962;2022-12-18T13:36:53;-1.40;96.80
4749;DHT22;2388;53.582;9.962;2022-12-18T13:44:56;-1.60;98.30
4749;DHT22;2388;53.582;9.962;2022-12-18T13:47:31;-1.60;98.70
4749;DHT22;2388;53.582;9.962;2022-12-18T13:49:57;-1.60;99.30
4749;DHT22;2388;53.582;9.962;2022-12-18T13:52:28;-1.60;99.40
4749;DHT22;2388;53.582;9.962;2022-12-18T13:54:59;-1.60;99.90
4749;DHT22;2388;53.582;9.962;2022-12-18T13:57:29;-1.40;85.00
4749;DHT22;2388;53.582;9.962;2022-12-18T13:59:56;-1.40;99.90
4749;DHT22;2388;53.582;9.962;2022-12-18T14:02:27;-1.50;1.00
4749;DHT22;2388;53.582;9.962;2022-12-18T14:04:53;-1.50;1.00
4749;DHT22;2388;53.582;9.962;2022-12-18T14:07:26;-1.60;1.00
4749;DHT22;2388;53.582;9.962;2022-12-18T14:09:58;-1.70;99.90
4749;DHT22;2388;53.582;9.962;2022-12-18T14:12:28;-1.70;1.00
4749;DHT22;2388;53.582;9.962;2022-12-18T14:15:35;-1.70;1.00
4749;DHT22;2388;53.582;9.962;2022-12-18T14:18:38;-1.80;1.00
4749;DHT22;2388;53.582;9.962;2022-12-18T14:21:04;-1.70;17.90
4749;DHT22;2388;53.582;9.962;2022-12-18T14:23:39;-1.70;1.00
4749;DHT22;2388;53.582;9.962;2022-12-18T14:26:26;-1.80;99.90
4749;DHT22;2388;53.582;9.962;2022-12-18T14:28:58;-1.90;99.90
4749;DHT22;2388;53.582;9.962;2022-12-18T14:31:26;-1.90;99.90
4749;DHT22;2388;53.582;9.962;2022-12-18T14:33:52;-1.90;99.90
4749;DHT22;2388;53.582;9.962;2022-12-18T14:36:27;-2.00;99.90
4749;DHT22;2388;53.582;9.962;2022-12-18T14:38:54;-2.00;99.90
4749;DHT22;2388;53.582;9.962;2022-12-18T14:41:21;-2.10;99.90
4749;DHT22;2388;53.582;9.962;2022-12-18T14:43:49;-2.10;99.90
4749;DHT22;2388;53.582;9.962;2022-12-18T14:48:59;-2.10;99.90
4749;DHT22;2388;53.582;9.962;2022-12-18T14:51:26;-2.10;99.90
4749;DHT22;2388;53.582;9.962;2022-12-18T14:53:57;-2.10;99.90
4749;DHT22;2388;53.582;9.962;2022-12-18T14:56:25;-2.10;99.90
4749;DHT22;2388;53.582;9.962;2022-12-18T14:59:21;-2.10;99.90
4749;DHT22;2388;53.582;9.962;2022-12-18T15:02:22;-2.20;99.90
4749;DHT22;2388;53.582;9.962;2022-12-18T15:05:03;-2.10;99.90
4749;DHT22;2388;53.582;9.962;2022-12-18T15:07:43;-2.20;99.90
4749;DHT22;2388;53.582;9.962;2022-12-18T15:12:43;-2.20;99.90
4749;DHT22;2388;53.582;9.962;2022-12-18T15:20:46;-2.30;99.90
4749;DHT22;2388;53.582;9.962;2022-12-18T15:26:04;-2.30;99.90
4749;DHT22;2388;53.582;9.962;2022-12-18T15:28:36;-2.60;99.90
4749;DHT22;2388;53.582;9.962;2022-12-18T15:33:39;-2.30;99.90
4749;DHT22;2388;53.582;9.962;2022-12-18T15:36:13;-2.30;99.90
4749;DHT22;2388;53.582;9.962;2022-12-18T15:38:39;-2.30;99.90
4749;DHT22;2388;53.582;9.962;2022-12-18T15:41:04;-2.30;99.90
4749;DHT22;2388;53.582;9.962;2022-12-18T15:43:30;-2.30;99.90
4749;DHT22;2388;53.582;9.962;2022-12-18T15:46:03;-2.40;99.90
4749;DHT22;2388;53.582;9.962;2022-12-18T15:48:33;-2.30;99.90
4749;DHT22;2388;53.582;9.962;2022-12-18T15:50:59;-2.30;99.90
4749;DHT22;2388;53.582;9.962;2022-12-18T15:53:30;-2.40;99.90
4749;DHT22;2388;53.582;9.962;2022-12-18T15:55:57;-2.30;99.90
4749;DHT22;2388;53.582;9.962;2022-12-18T15:58:41;-2.30;99.90
4749;DHT22;2388;53.582;9.962;2022-12-18T16:01:09;-2.30;99.90
4749;DHT22;2388;53.582;9.962;2022-12-18T16:03:34;-2.30;99.90
4749;DHT22;2388;53.582;9.962;2022-12-18T16:06:00;-2.30;99.90
4749;DHT22;2388;53.582;9.962;2022-12-18T16:08:28;-2.30;99.90
4749;DHT22;2388;53.582;9.962;2022-12-18T16:10:54;-2.30;99.90
4749;DHT22;2388;53.582;9.962;2022-12-18T16:13:20;-2.30;99.90
4749;DHT22;2388;53.582;9.962;2022-12-18T16:15:46;-2.30;99.90
4749;DHT22;2388;53.582;9.962;2022-12-18T16:18:12;-2.30;99.90
4749;DHT22;2388;53.582;9.962;2022-12-18T16:20:38;-2.40;99.90
4749;DHT22;2388;53.582;9.962;2022-12-18T16:23:03;-2.40;99.90
4749;DHT22;2388;53.582;9.962;2022-12-18T16:25:29;-2.50;99.90
4749;DHT22;2388;53.582;9.962;2022-12-18T16:27:55;-2.40;99.90
4749;DHT22;2388;53.582;9.962;2022-12-18T16:30:27;-2.40;99.90
4749;DHT22;2388;53.582;9.962;2022-12-18T16:32:57;-2.40;99.90
4749;DHT22;2388;53.582;9.962;2022-12-18T16:35:23;-2.40;99.90
4749;DHT22;2388;53.582;9.962;2022-12-18T16:37:49;-2.30;99.90
4749;DHT22;2388;53.582;9.962;2022-12-18T16:40:16;-2.30;99.90
4749;DHT22;2388;53.582;9.962;2022-12-18T16:42:44;-2.40;99.90
4749;DHT22;2388;53.582;9.962;2022-12-18T16:45:12;-2.40;99.90
4749;DHT22;2388;53.582;9.962;2022-12-18T16:47:38;-2.40;99.90
4749;DHT22;2388;53.582;9.962;2022-12-18T16:50:04;-2.40;99.90
4749;DHT22;2388;53.582;9.962;2022-12-18T16:52:30;-2.40;99.90
4749;DHT22;2388;53.582;9.962;2022-12-18T16:54:56;-2.40;99.90
4749;DHT22;2388;53.582;9.962;2022-12-18T16:57:23;-2.40;99.90
4749;DHT22;2388;53.582;9.962;2022-12-18T16:59:48;-2.40;99.90
4749;DHT22;2388;53.582;9.962;2022-12-18T17:02:16;-2.40;99.90
4749;DHT22;2388;53.582;9.962;2022-12-18T17:04:43;-2.50;99.90
4749;DHT22;2388;53.582;9.962;2022-12-18T17:07:08;-2.50;99.90
4749;DHT22;2388;53.582;9.962;2022-12-18T17:09:34;-2.50;99.90
4749;DHT22;2388;53.582;9.962;2022-12-18T17:12:00;-2.40;99.90
4749;DHT22;2388;53.582;9.962;2022-12-18T17:14:26;-2.40;99.90
4749;DHT22;2388;53.582;9.962;2022-12-18T17:16:52;-2.40;99.90
4749;DHT22;2388;53.582;9.962;2022-12-18T17:19:18;-2.50;99.90
4749;DHT22;2388;53.582;9.962;2022-12-18T17:21:47;-2.40;99.90
4749;DHT22;2388;53.582;9.962;2022-12-18T17:24:14;-2.40;99.90
4749;DHT22;2388;53.582;9.962;2022-12-18T17:26:39;-2.40;99.90
4749;DHT22;2388;53.582;9.962;2022-12-18T17:29:05;-2.40;99.90
4749;DHT22;2388;53.582;9.962;2022-12-18T17:31:31;-2.40;99.90
4749;DHT22;2388;53.582;9.962;2022-12-18T17:33:57;-2.40;99.90
4749;DHT22;2388;53.582;9.962;2022-12-18T17:36:24;-2.40;99.90
4749;DHT22;2388;53.582;9.962;2022-12-18T17:38:54;-2.40;99.90
4749;DHT22;2388;53.582;9.962;2022-12-18T17:41:21;-2.40;99.90
4749;DHT22;2388;53.582;9.962;2022-12-18T17:43:57;-2.30;99.90